createdAt,value
2022-08-04T08:06:31.264Z,30.70
2022-08-04T08:09:21.673Z,30.80
2022-08-04T08:12:35.879Z,31.20
2022-08-04T08:15:17.142Z,30.90
2022-08-04T08:18:04.822Z,31.10
2022-08-04T08:20:53.195Z,31.30
2022-08-04T08:23:41.493Z,31.40
2022-08-04T08:26:29.189Z,31.20
2022-08-04T08:29:17.645Z,31.40
2022-08-04T08:32:08.536Z,31.70
2022-08-04T08:34:55.873Z,31.90
2022-08-04T08:37:55.528Z,31.90
2022-08-04T08:40:56.396Z,32.10
2022-08-04T08:44:30.030Z,32.10
2022-08-04T08:48:05.374Z,32.30
2022-08-04T08:51:31.598Z,32.20
2022-08-04T08:54:56.314Z,32.70
2022-08-04T08:58:01.865Z,32.70
2022-08-04T09:01:11.785Z,32.70
2022-08-04T09:04:23.187Z,33.00
2022-08-04T09:07:30.305Z,33.60
2022-08-04T09:10:42.256Z,33.90
2022-08-04T09:14:03.158Z,34.10
2022-08-04T09:17:02.814Z,34.60
2022-08-04T09:20:00.511Z,34.50
2022-08-04T09:23:11.462Z,34.20
2022-08-04T09:26:09.081Z,34.10
2022-08-04T09:29:15.535Z,34.50
2022-08-04T09:32:17.824Z,34.80
2022-08-04T09:35:40.483Z,35.10
2022-08-04T09:38:38.765Z,35.20
2022-08-04T09:42:04.063Z,35.00
2022-08-04T09:45:06.274Z,35.10
2022-08-04T09:48:09.957Z,35.10
2022-08-04T09:50:59.983Z,34.90
2022-08-04T09:54:01.468Z,33.90
2022-08-04T09:56:57.984Z,34.20
2022-08-04T10:00:47.645Z,34.60
2022-08-04T10:03:53.328Z,34.80
2022-08-04T10:07:10.301Z,35.20
2022-08-04T10:10:19.201Z,34.40
2022-08-04T10:13:48.697Z,33.70
2022-08-04T10:17:06.831Z,34.20
2022-08-04T10:20:09.293Z,34.70
2022-08-04T10:23:28.948Z,35.30
2022-08-04T10:26:32.727Z,35.40
2022-08-04T10:29:45.444Z,35.60
2022-08-04T10:32:44.275Z,35.70
2022-08-04T10:35:54.605Z,35.50
2022-08-04T10:39:13.930Z,35.90
2022-08-04T10:42:25.962Z,36.20
2022-08-04T10:45:25.291Z,36.60
2022-08-04T10:48:34.842Z,36.70
2022-08-04T10:51:58.005Z,37.00
2022-08-04T10:55:04.232Z,37.00
2022-08-04T10:58:04.088Z,37.20
2022-08-04T11:01:06.084Z,37.00
2022-08-04T11:04:00.209Z,37.10
2022-08-04T11:06:48.282Z,37.00
2022-08-04T11:09:41.984Z,37.00
2022-08-04T11:12:35.115Z,36.80
2022-08-04T11:15:29.766Z,37.10
2022-08-04T11:18:31.547Z,37.20
2022-08-04T11:21:28.913Z,37.10
2022-08-04T11:24:50.426Z,37.30
2022-08-04T11:28:03.516Z,37.60
2022-08-04T11:31:12.405Z,37.80
2022-08-04T11:34:06.115Z,37.80
2022-08-04T11:37:36.296Z,37.90
2022-08-04T11:41:47.397Z,37.90
2022-08-04T11:44:51.624Z,37.10
2022-08-04T11:51:57.098Z,37.90
2022-08-04T11:54:46.090Z,37.90
2022-08-04T11:57:41.287Z,38.00
2022-08-04T12:00:32.919Z,38.00
2022-08-04T12:03:37.593Z,37.70
2022-08-04T12:07:30.062Z,37.80
2022-08-04T12:12:06.905Z,37.80
2022-08-04T12:15:44.201Z,38.20
2022-08-04T12:23:50.490Z,37.90
2022-08-04T12:40:38.777Z,38.70
2022-08-04T12:52:09.742Z,38.40
2022-08-04T13:24:32.794Z,37.90
2022-08-04T13:27:58.185Z,38.30
2022-08-04T13:30:50.999Z,38.50
2022-08-04T13:33:41.338Z,38.60
2022-08-04T13:36:35.180Z,38.80
2022-08-04T13:39:38.465Z,38.50
2022-08-04T13:42:30.063Z,38.60
2022-08-04T13:45:43.235Z,38.10
2022-08-04T13:48:43.446Z,38.10
2022-08-04T13:51:57.584Z,38.30
2022-08-04T13:54:46.539Z,38.20
2022-08-04T13:57:47.944Z,38.50
2022-08-04T14:01:02.762Z,38.80
2022-08-04T14:03:59.826Z,38.50
2022-08-04T14:06:56.052Z,38.40
2022-08-04T14:10:04.021Z,38.40
2022-08-04T14:16:02.397Z,38.40
2022-08-04T14:19:56.321Z,38.20
2022-08-04T14:22:44.377Z,38.40
2022-08-04T14:25:35.596Z,38.50
2022-08-04T14:54:47.513Z,38.40
2022-08-04T14:58:34.553Z,37.50
2022-08-04T15:00:45.204Z,37.60
2022-08-04T15:03:32.587Z,37.40
2022-08-04T15:06:23.556Z,37.30
2022-08-04T15:09:11.551Z,37.40
2022-08-04T15:11:58.701Z,37.10
2022-08-04T15:14:46.455Z,37.00
2022-08-04T15:17:33.667Z,36.90
2022-08-04T15:20:21.549Z,37.10
2022-08-04T15:23:10.994Z,37.40
2022-08-04T15:26:03.071Z,37.40
2022-08-04T15:28:58.983Z,37.20
2022-08-04T15:32:05.592Z,36.90
2022-08-04T15:35:05.270Z,37.00
2022-08-04T15:37:59.021Z,36.80
2022-08-04T15:41:08.019Z,36.80
2022-08-04T15:44:15.850Z,36.70
2022-08-04T15:47:04.439Z,36.70
2022-08-04T15:50:09.770Z,36.70
2022-08-04T15:53:00.930Z,36.90
2022-08-04T15:55:52.728Z,36.80
2022-08-04T15:58:55.398Z,36.60
2022-08-04T16:01:42.770Z,36.30
2022-08-04T16:05:00.175Z,36.30
2022-08-04T16:07:58.768Z,36.30
2022-08-04T16:10:48.019Z,36.30
2022-08-04T16:13:34.926Z,36.10
